createdAt,value
2022-09-25T00:00:49.211Z,0.60
2022-09-25T00:03:18.263Z,0.75
2022-09-25T00:05:47.111Z,0.65
2022-09-25T00:08:17.525Z,0.80
2022-09-25T00:10:48.079Z,0.70
2022-09-25T00:13:16.071Z,0.60
2022-09-25T00:15:47.978Z,0.70
2022-09-25T00:18:15.987Z,0.70
2022-09-25T00:20:43.270Z,0.57
2022-09-25T00:23:10.621Z,0.60
2022-09-25T00:25:39.570Z,0.60
2022-09-25T00:28:06.903Z,0.50
2022-09-25T00:30:34.336Z,0.60
2022-09-25T00:33:01.704Z,0.50
2022-09-25T00:35:29.037Z,0.50
2022-09-25T00:37:56.539Z,0.55
2022-09-25T00:40:24.660Z,0.50
2022-09-25T00:42:53.372Z,0.50
2022-09-25T00:45:21.591Z,0.50
2022-09-25T00:47:58.047Z,0.55
2022-09-25T00:50:32.508Z,0.60
2022-09-25T00:53:05.954Z,0.50
2022-09-25T00:55:34.936Z,0.70
2022-09-25T00:58:05.330Z,0.60
2022-09-25T01:00:34.422Z,0.60
2022-09-25T01:03:05.045Z,0.60
2022-09-25T01:05:36.193Z,0.50
2022-09-25T01:08:06.893Z,0.57
2022-09-25T01:10:34.432Z,0.60
2022-09-25T01:13:02.026Z,0.60
2022-09-25T01:15:37.267Z,0.70
2022-09-25T01:18:14.772Z,0.70
2022-09-25T01:21:00.262Z,0.75
2022-09-25T01:23:45.315Z,0.68
2022-09-25T01:26:31.922Z,0.68
2022-09-25T01:29:11.159Z,0.65
2022-09-25T01:31:48.111Z,0.70
2022-09-25T01:34:22.127Z,0.63
2022-09-25T01:36:57.867Z,0.73
2022-09-25T01:39:32.263Z,0.80
2022-09-25T01:44:32.092Z,0.65
2022-09-25T01:47:05.992Z,0.80
2022-09-25T01:49:37.178Z,0.90
2022-09-25T01:52:11.060Z,0.70
2022-09-25T01:54:42.717Z,0.60
2022-09-25T01:57:13.187Z,0.80
2022-09-25T01:59:46.951Z,0.65
2022-09-25T02:02:20.484Z,0.60
2022-09-25T02:04:54.194Z,0.60
2022-09-25T02:07:28.781Z,0.60
2022-09-25T02:10:03.001Z,0.70
2022-09-25T02:12:36.550Z,0.70
2022-09-25T02:15:12.104Z,0.60
2022-09-25T02:18:03.056Z,0.60
2022-09-25T02:20:33.873Z,0.60
2022-09-25T02:23:09.328Z,0.60
2022-09-25T02:25:41.538Z,0.55
2022-09-25T02:28:09.150Z,0.60
2022-09-25T02:30:37.942Z,0.60
2022-09-25T02:33:05.375Z,0.70
2022-09-25T02:35:33.985Z,0.70
2022-09-25T02:38:01.372Z,0.77
2022-09-25T02:40:38.396Z,0.80
2022-09-25T02:43:17.605Z,0.70
2022-09-25T02:45:57.562Z,0.60
2022-09-25T02:48:31.286Z,0.60
2022-09-25T02:51:07.533Z,0.50
2022-09-25T02:53:39.614Z,0.70
2022-09-25T02:56:12.735Z,0.80
2022-09-25T02:58:43.780Z,0.80
2022-09-25T03:01:16.414Z,0.80
2022-09-25T03:03:46.709Z,0.80
2022-09-25T03:06:14.699Z,0.90
2022-09-25T03:08:49.209Z,0.80
2022-09-25T03:11:19.643Z,0.70
2022-09-25T03:13:56.025Z,0.70
2022-09-25T03:16:33.600Z,0.70
2022-09-25T03:19:01.064Z,0.70
2022-09-25T03:21:28.424Z,0.70
2022-09-25T03:23:57.087Z,0.85
2022-09-25T03:26:25.470Z,0.65
2022-09-25T03:28:53.239Z,0.60
2022-09-25T03:31:21.260Z,0.75
2022-09-25T03:33:50.152Z,0.63
2022-09-25T03:36:20.485Z,0.68
2022-09-25T03:38:49.311Z,0.60
2022-09-25T03:41:21.236Z,0.70
2022-09-25T03:43:51.614Z,0.77
2022-09-25T03:46:22.595Z,0.70
2022-09-25T03:48:52.230Z,0.70
2022-09-25T03:51:20.305Z,0.70
2022-09-25T03:53:47.716Z,0.70
2022-09-25T03:56:17.920Z,0.70
2022-09-25T03:58:45.745Z,0.70
2022-09-25T04:01:13.350Z,0.82
2022-09-25T04:03:40.865Z,0.70
2022-09-25T04:06:09.776Z,0.68
2022-09-25T04:08:38.012Z,0.70
2022-09-25T04:11:05.799Z,1.55
2022-09-25T04:13:36.133Z,0.70
2022-09-25T04:16:06.039Z,0.70
2022-09-25T04:18:33.827Z,0.70
2022-09-25T04:21:02.284Z,0.70
2022-09-25T04:23:31.176Z,0.70
2022-09-25T04:25:58.862Z,0.70
2022-09-25T04:28:27.233Z,0.70
2022-09-25T04:30:54.624Z,0.70
2022-09-25T04:33:39.611Z,0.60
2022-09-25T04:36:07.432Z,0.80
2022-09-25T04:38:36.188Z,0.70
2022-09-25T04:41:03.867Z,0.60
2022-09-25T04:43:32.256Z,0.60
2022-09-25T04:46:02.587Z,0.60
2022-09-25T04:48:30.043Z,0.60
2022-09-25T04:50:58.167Z,0.60
2022-09-25T04:53:27.305Z,0.60
2022-09-25T04:56:00.962Z,0.60
2022-09-25T04:58:28.554Z,0.60
2022-09-25T05:00:56.042Z,0.60
2022-09-25T05:03:23.480Z,0.60
2022-09-25T05:05:50.875Z,0.65
2022-09-25T05:08:18.192Z,0.63
2022-09-25T05:10:45.538Z,0.80
2022-09-25T05:13:14.185Z,0.60
2022-09-25T05:15:41.542Z,0.70
2022-09-25T05:18:14.196Z,0.80
2022-09-25T05:20:41.599Z,0.80
2022-09-25T05:23:09.228Z,0.80
2022-09-25T05:25:36.644Z,0.80
2022-09-25T05:28:04.117Z,0.80
2022-09-25T05:30:34.448Z,0.73
2022-09-25T05:33:02.180Z,0.80
2022-09-25T05:35:32.201Z,0.70
2022-09-25T05:37:59.660Z,0.70
2022-09-25T05:40:27.614Z,0.70
2022-09-25T05:42:56.027Z,0.77
2022-09-25T05:45:24.147Z,0.70
2022-09-25T05:48:02.405Z,0.60
2022-09-25T05:50:30.102Z,0.63
2022-09-25T05:52:57.990Z,0.70
2022-09-25T05:55:25.555Z,0.70
2022-09-25T05:57:52.912Z,0.70
2022-09-25T06:00:20.652Z,0.73
2022-09-25T06:02:52.575Z,0.70
2022-09-25T06:05:21.283Z,0.70
2022-09-25T06:07:54.091Z,0.70
2022-09-25T06:10:21.479Z,0.70
2022-09-25T06:12:49.275Z,0.68
2022-09-25T06:15:16.854Z,0.60
2022-09-25T06:17:44.218Z,0.70
2022-09-25T06:20:15.937Z,0.60
2022-09-25T06:22:45.240Z,0.70
2022-09-25T06:25:12.620Z,0.60
2022-09-25T06:27:40.504Z,0.60
2022-09-25T06:30:08.446Z,0.55
2022-09-25T06:32:35.798Z,0.60
2022-09-25T06:35:04.290Z,0.60
2022-09-25T06:37:31.633Z,0.50
2022-09-25T06:40:00.317Z,0.60
2022-09-25T06:42:27.682Z,0.60
2022-09-25T06:44:55.021Z,0.70
2022-09-25T06:47:26.713Z,0.60
2022-09-25T06:49:54.249Z,0.70
2022-09-25T06:52:21.577Z,0.70
2022-09-25T06:54:48.912Z,0.73
2022-09-25T06:57:17.625Z,0.80
2022-09-25T06:59:44.938Z,0.82
2022-09-25T07:02:29.744Z,0.88
2022-09-25T07:04:57.150Z,1.00
2022-09-25T07:07:25.151Z,1.00
2022-09-25T07:09:52.484Z,1.20
2022-09-25T07:12:21.962Z,1.00
2022-09-25T07:14:49.305Z,1.08
2022-09-25T07:17:16.638Z,1.13
2022-09-25T07:19:43.955Z,1.17
2022-09-25T07:22:12.618Z,1.10
2022-09-25T07:24:39.981Z,1.20
2022-09-25T07:27:07.659Z,1.20
2022-09-25T07:29:36.441Z,1.10
2022-09-25T07:32:04.776Z,1.20
2022-09-25T07:34:32.165Z,1.20
2022-09-25T07:36:59.507Z,0.82
2022-09-25T07:39:26.846Z,0.90
2022-09-25T07:41:55.556Z,0.80
2022-09-25T07:44:37.223Z,0.70
2022-09-25T07:47:08.917Z,0.75
2022-09-25T07:49:36.504Z,0.80
2022-09-25T07:52:06.092Z,0.70
2022-09-25T07:54:34.518Z,0.80
2022-09-25T07:57:02.456Z,0.70
2022-09-25T07:59:29.872Z,0.80
2022-09-25T08:01:58.141Z,0.80
2022-09-25T08:04:26.945Z,0.70
2022-09-25T08:06:54.276Z,0.80
2022-09-25T08:09:21.627Z,0.75
2022-09-25T08:11:48.951Z,0.70
2022-09-25T08:14:16.470Z,0.80
2022-09-25T08:16:44.056Z,0.80
2022-09-25T08:19:12.035Z,0.73
2022-09-25T08:21:40.688Z,0.80
2022-09-25T08:24:08.339Z,0.80
2022-09-25T08:26:36.617Z,0.90
2022-09-25T08:29:04.859Z,0.82
2022-09-25T08:31:32.294Z,0.75
2022-09-25T08:34:14.931Z,0.80
2022-09-25T08:36:51.026Z,0.80
2022-09-25T08:39:19.235Z,0.80
2022-09-25T08:41:49.433Z,0.70
2022-09-25T08:44:24.985Z,0.85
2022-09-25T08:47:19.030Z,0.82
2022-09-25T08:49:52.510Z,0.60
2022-09-25T08:52:22.792Z,0.60
2022-09-25T08:54:52.032Z,0.70
2022-09-25T08:57:28.951Z,0.70
2022-09-25T09:00:02.448Z,0.60
2022-09-25T09:02:38.259Z,0.68
2022-09-25T09:05:15.045Z,0.80
2022-09-25T09:07:47.554Z,0.75
2022-09-25T09:10:26.025Z,0.70
2022-09-25T09:12:57.416Z,0.70
2022-09-25T09:15:31.057Z,1.05
2022-09-25T09:18:03.228Z,0.68
2022-09-25T09:20:38.811Z,0.50
2022-09-25T09:23:15.486Z,0.60
2022-09-25T09:25:52.214Z,0.70
2022-09-25T09:28:43.972Z,0.60
2022-09-25T09:31:21.393Z,0.60
2022-09-25T09:33:59.143Z,0.65
2022-09-25T09:36:35.830Z,0.50
2022-09-25T09:39:13.178Z,0.73
2022-09-25T09:41:56.754Z,0.60
2022-09-25T09:44:38.134Z,0.50
2022-09-25T09:47:12.876Z,0.40
2022-09-25T09:49:45.854Z,0.43
2022-09-25T09:52:18.070Z,0.40
2022-09-25T09:54:53.373Z,0.40
2022-09-25T09:57:25.271Z,0.43
2022-09-25T10:00:04.421Z,0.50
2022-09-25T10:02:39.129Z,0.77
2022-09-25T10:05:12.698Z,0.43
2022-09-25T10:07:41.963Z,0.53
2022-09-25T10:10:15.285Z,0.50
2022-09-25T10:12:46.950Z,0.50
2022-09-25T10:15:20.393Z,0.50
2022-09-25T10:17:48.675Z,0.47
2022-09-25T10:20:21.103Z,0.40
2022-09-25T10:22:52.187Z,0.40
2022-09-25T10:25:36.922Z,0.57
2022-09-25T10:28:23.299Z,0.40
2022-09-25T10:30:52.187Z,0.40
2022-09-25T10:33:22.520Z,0.40
2022-09-25T10:35:54.782Z,0.55
2022-09-25T10:38:33.283Z,0.50
2022-09-25T10:41:05.462Z,0.50
2022-09-25T10:43:33.283Z,0.45
2022-09-25T10:46:43.070Z,0.50
2022-09-25T10:49:34.053Z,0.40
2022-09-25T10:52:06.401Z,0.40
2022-09-25T10:54:36.832Z,0.40
2022-09-25T10:57:18.526Z,0.50
2022-09-25T11:02:43.564Z,0.50
2022-09-25T11:05:18.097Z,0.50
2022-09-25T11:07:55.050Z,0.60
2022-09-25T11:10:24.736Z,0.60
2022-09-25T11:12:54.224Z,0.55
2022-09-25T11:15:24.439Z,0.65
2022-09-25T11:17:53.822Z,0.43
2022-09-25T11:20:29.223Z,0.73
2022-09-25T11:23:04.844Z,0.43
2022-09-25T11:25:39.464Z,0.40
2022-09-25T11:28:17.128Z,0.65
2022-09-25T11:30:51.444Z,0.52
2022-09-25T11:33:26.540Z,0.52
2022-09-25T11:35:59.202Z,0.57
2022-09-25T11:38:51.409Z,0.60
2022-09-25T11:41:28.440Z,0.68
2022-09-25T11:44:09.656Z,0.60
2022-09-25T11:46:42.697Z,0.50
2022-09-25T11:49:19.146Z,0.40
2022-09-25T11:52:10.292Z,0.43
2022-09-25T11:54:49.057Z,0.65
2022-09-25T11:57:24.863Z,0.57
2022-09-25T12:00:08.245Z,0.75
2022-09-25T12:02:49.940Z,0.70
2022-09-25T12:05:32.421Z,0.50
2022-09-25T12:08:17.115Z,0.60
2022-09-25T12:10:54.845Z,0.70
2022-09-25T12:13:38.672Z,0.57
2022-09-25T12:16:19.353Z,0.60
2022-09-25T12:19:00.368Z,0.50
2022-09-25T12:21:34.990Z,0.40
2022-09-25T12:24:11.296Z,0.50
2022-09-25T12:26:52.710Z,0.40
2022-09-25T12:29:32.987Z,0.60
2022-09-25T12:32:09.104Z,0.60
2022-09-25T12:34:53.325Z,0.80
2022-09-25T12:37:29.679Z,0.75
2022-09-25T12:40:00.215Z,0.60
2022-09-25T12:42:40.142Z,0.70
2022-09-25T12:45:17.024Z,0.60
2022-09-25T12:47:50.618Z,0.60
2022-09-25T12:50:21.668Z,0.50
2022-09-25T12:52:55.041Z,0.45
2022-09-25T12:55:26.019Z,0.50
2022-09-25T12:58:01.585Z,0.50
2022-09-25T13:00:32.442Z,0.57
2022-09-25T13:03:05.029Z,0.47
2022-09-25T13:05:36.111Z,0.40
2022-09-25T13:08:10.840Z,0.50
2022-09-25T13:10:40.223Z,0.50
2022-09-25T13:13:19.102Z,0.50
2022-09-25T13:15:52.308Z,0.57
2022-09-25T13:18:23.435Z,0.70
2022-09-25T13:20:53.940Z,0.80
2022-09-25T13:23:34.660Z,0.70
2022-09-25T13:26:10.380Z,0.50
2022-09-25T13:28:40.347Z,0.55
2022-09-25T13:31:11.261Z,0.60
2022-09-25T13:33:46.244Z,0.70
2022-09-25T13:36:38.560Z,0.60
2022-09-25T13:39:32.994Z,0.50
2022-09-25T13:42:04.288Z,0.50
2022-09-25T13:44:49.683Z,0.50
2022-09-25T13:47:53.512Z,0.50
2022-09-25T13:50:28.545Z,0.50
2022-09-25T13:53:25.407Z,0.40
2022-09-25T13:56:13.721Z,0.55
2022-09-25T13:59:16.065Z,0.57
2022-09-25T14:01:45.397Z,0.50
2022-09-25T14:04:21.787Z,0.60
2022-09-25T14:06:54.000Z,0.68
2022-09-25T14:09:24.244Z,0.60
2022-09-25T14:11:56.708Z,0.80
2022-09-25T14:14:30.824Z,0.50
2022-09-25T14:17:00.264Z,0.60
2022-09-25T14:19:31.930Z,0.50
2022-09-25T14:22:03.563Z,0.60
2022-09-25T14:24:32.045Z,0.60
2022-09-25T14:27:01.953Z,0.77
2022-09-25T14:29:33.134Z,0.80
2022-09-25T14:32:42.910Z,0.70
2022-09-25T14:35:35.260Z,0.73
2022-09-25T14:38:38.421Z,0.75
2022-09-25T14:41:27.416Z,0.50
2022-09-25T14:44:18.259Z,0.50
2022-09-25T14:46:49.250Z,0.40
2022-09-25T14:49:25.325Z,0.50
2022-09-25T14:51:56.152Z,0.70
2022-09-25T14:54:29.674Z,0.52
2022-09-25T14:56:59.288Z,0.60
2022-09-25T14:59:32.790Z,0.40
2022-09-25T15:02:02.970Z,0.50
2022-09-25T15:04:33.726Z,0.52
2022-09-25T15:07:05.939Z,0.50
2022-09-25T15:09:42.107Z,0.73
2022-09-25T15:12:18.908Z,0.60
2022-09-25T15:15:00.017Z,0.50
2022-09-25T15:17:27.790Z,0.50
2022-09-25T15:19:57.473Z,0.82
2022-09-25T15:22:28.392Z,1.00
2022-09-25T15:24:59.968Z,0.90
2022-09-25T15:27:28.298Z,0.70
2022-09-25T15:29:57.390Z,0.50
2022-09-25T15:32:28.398Z,0.50
2022-09-25T15:35:07.687Z,0.50
2022-09-25T15:37:35.139Z,0.38
2022-09-25T15:40:18.783Z,0.38
2022-09-25T15:42:47.797Z,0.50
2022-09-25T15:45:36.746Z,0.73
2022-09-25T15:48:11.136Z,1.20
2022-09-25T15:50:43.300Z,1.38
2022-09-25T15:53:21.043Z,1.40
2022-09-25T15:55:51.039Z,1.42
2022-09-25T15:58:22.042Z,1.10
2022-09-25T16:01:18.841Z,0.60
2022-09-25T16:04:07.647Z,0.57
2022-09-25T16:06:40.322Z,0.70
2022-09-25T16:09:19.617Z,0.50
2022-09-25T16:11:49.201Z,0.60
2022-09-25T16:14:29.178Z,0.57
2022-09-25T16:17:00.231Z,0.50
2022-09-25T16:19:34.479Z,0.63
2022-09-25T16:24:41.022Z,0.60
2022-09-25T16:27:24.451Z,0.57
2022-09-25T16:29:52.359Z,0.40
2022-09-25T16:32:21.011Z,0.43
2022-09-25T16:34:58.745Z,0.40
2022-09-25T16:37:30.447Z,0.50
2022-09-25T16:40:11.325Z,0.40
2022-09-25T16:42:40.392Z,0.35
2022-09-25T16:45:23.677Z,0.47
2022-09-25T16:47:51.689Z,0.73
2022-09-25T16:50:20.224Z,0.70
2022-09-25T16:52:48.867Z,0.40
2022-09-25T16:55:23.035Z,0.50
2022-09-25T16:57:53.187Z,0.50
2022-09-25T17:00:23.339Z,0.50
2022-09-25T17:02:51.607Z,0.45
2022-09-25T17:05:21.138Z,0.55
2022-09-25T17:07:50.052Z,0.40
2022-09-25T17:10:24.936Z,0.40
2022-09-25T17:12:55.239Z,0.30
2022-09-25T17:15:24.843Z,0.70
2022-09-25T17:17:55.276Z,0.50
2022-09-25T17:20:24.321Z,0.50
2022-09-25T17:22:51.926Z,0.50
2022-09-25T17:25:38.148Z,0.60
2022-09-25T17:28:08.862Z,0.60
2022-09-25T17:30:36.510Z,0.63
2022-09-25T17:33:05.864Z,0.60
2022-09-25T17:35:44.048Z,0.60
2022-09-25T17:38:14.167Z,0.60
2022-09-25T17:40:44.288Z,0.60
2022-09-25T17:43:14.661Z,0.85
2022-09-25T17:45:48.823Z,0.80
2022-09-25T17:50:45.620Z,0.90
2022-09-25T17:53:17.683Z,0.70
2022-09-25T17:55:50.016Z,0.90
2022-09-25T17:58:23.605Z,0.65
2022-09-25T18:00:52.511Z,0.80
2022-09-25T18:03:20.772Z,0.95
2022-09-25T18:05:48.564Z,0.77
2022-09-25T18:08:16.655Z,0.88
2022-09-25T18:10:44.154Z,0.80
2022-09-25T18:13:14.867Z,0.80
2022-09-25T18:15:48.664Z,0.60
2022-09-25T18:18:16.147Z,0.73
2022-09-25T18:21:08.445Z,0.80
2022-09-25T18:23:38.363Z,0.98
2022-09-25T18:26:08.792Z,1.00
2022-09-25T18:28:36.151Z,1.00
2022-09-25T18:31:04.922Z,0.85
2022-09-25T18:33:32.506Z,0.90
2022-09-25T18:35:59.884Z,0.80
2022-09-25T18:38:27.235Z,0.80
2022-09-25T18:40:54.662Z,0.70
2022-09-25T18:43:22.016Z,0.70
2022-09-25T18:45:51.435Z,0.60
2022-09-25T18:48:20.800Z,0.70
2022-09-25T18:50:48.775Z,0.70
2022-09-25T18:53:17.060Z,0.70
2022-09-25T18:55:44.724Z,0.60
2022-09-25T18:58:12.280Z,0.65
2022-09-25T19:00:40.711Z,0.60
2022-09-25T19:03:08.218Z,0.65
2022-09-25T19:05:37.020Z,0.70
2022-09-25T19:08:04.929Z,0.80
2022-09-25T19:10:34.509Z,0.90
2022-09-25T19:13:01.908Z,0.80
2022-09-25T19:15:32.568Z,0.90
2022-09-25T19:18:00.170Z,1.00
2022-09-25T19:20:27.576Z,0.80
2022-09-25T19:22:56.207Z,0.73
2022-09-25T19:25:23.610Z,0.80
2022-09-25T19:27:50.936Z,0.93
2022-09-25T19:30:18.544Z,0.88
2022-09-25T19:32:45.878Z,0.98
2022-09-25T19:35:13.257Z,1.08
2022-09-25T19:37:41.957Z,0.90
2022-09-25T19:40:29.119Z,0.90
2022-09-25T19:42:57.838Z,1.08
2022-09-25T19:45:25.900Z,1.20
2022-09-25T19:47:53.252Z,1.35
2022-09-25T19:50:21.268Z,1.42
2022-09-25T19:52:51.069Z,1.45
2022-09-25T19:55:20.088Z,1.70
2022-09-25T19:57:47.693Z,1.83
2022-09-25T20:00:17.214Z,1.58
2022-09-25T20:02:46.551Z,1.48
2022-09-25T20:05:14.484Z,1.65
2022-09-25T20:07:43.049Z,1.60
2022-09-25T20:10:10.658Z,1.60
2022-09-25T20:12:39.318Z,1.55
2022-09-25T20:15:07.886Z,1.50
2022-09-25T20:17:35.302Z,1.65
2022-09-25T20:20:03.139Z,1.65
2022-09-25T20:22:31.485Z,1.80
2022-09-25T20:24:58.814Z,1.85
2022-09-25T20:27:26.673Z,1.80
2022-09-25T20:29:55.627Z,1.40
2022-09-25T20:32:22.971Z,1.30
2022-09-25T20:34:51.398Z,1.20
2022-09-25T20:37:18.740Z,1.10
2022-09-25T20:39:46.321Z,1.10
2022-09-25T20:42:13.683Z,1.10
2022-09-25T20:44:41.012Z,1.10
2022-09-25T21:01:41.962Z,0.90
2022-09-25T21:04:10.209Z,0.80
2022-09-25T21:06:39.678Z,0.80
2022-09-25T21:09:08.555Z,0.80
2022-09-25T21:11:37.423Z,0.80
2022-09-25T21:14:04.840Z,0.88
2022-09-25T21:16:33.920Z,0.90
2022-09-25T21:19:04.945Z,0.80
2022-09-25T21:21:34.047Z,0.70
2022-09-25T21:24:02.195Z,0.60
2022-09-25T21:26:30.459Z,0.70
2022-09-25T21:28:59.436Z,0.80
2022-09-25T21:31:28.919Z,0.73
2022-09-25T21:33:57.957Z,0.80
2022-09-25T21:36:28.197Z,0.80
2022-09-25T21:38:55.754Z,0.70
2022-09-25T21:41:24.975Z,0.70
2022-09-25T21:43:54.586Z,0.75
2022-09-25T21:46:22.321Z,0.70
2022-09-25T21:48:51.406Z,0.60
2022-09-25T21:51:20.807Z,0.70
2022-09-25T21:53:50.288Z,0.60
2022-09-25T21:56:20.885Z,0.60
2022-09-25T21:58:48.515Z,0.60
2022-09-25T22:01:18.325Z,0.60
2022-09-25T22:03:48.102Z,0.70
2022-09-25T22:06:18.268Z,0.60
2022-09-25T22:08:48.263Z,0.60
2022-09-25T22:11:17.526Z,0.60
2022-09-25T22:13:46.697Z,0.60
2022-09-25T22:16:16.641Z,0.68
2022-09-25T22:18:45.684Z,0.60
2022-09-25T22:21:14.302Z,0.60
2022-09-25T22:23:41.736Z,0.70
2022-09-25T22:26:09.578Z,0.70
2022-09-25T22:28:38.923Z,0.68
2022-09-25T22:31:07.091Z,0.68
2022-09-25T22:33:35.438Z,0.70
2022-09-25T22:36:05.724Z,0.70
2022-09-25T22:38:33.842Z,0.75
2022-09-25T22:41:04.120Z,0.80
2022-09-25T22:43:31.524Z,0.70
2022-09-25T22:46:00.575Z,0.93
2022-09-25T22:48:28.124Z,0.80
2022-09-25T22:50:56.564Z,0.80
2022-09-25T22:53:24.582Z,0.82
2022-09-25T22:55:51.983Z,0.80
2022-09-25T22:58:20.182Z,0.80
2022-09-25T23:00:51.573Z,0.80
2022-09-25T23:03:21.762Z,0.80
2022-09-25T23:05:50.782Z,0.90
2022-09-25T23:08:18.499Z,0.80
2022-09-25T23:11:06.039Z,0.90
2022-09-25T23:13:34.396Z,0.70
2022-09-25T23:16:05.838Z,0.70
2022-09-25T23:18:35.161Z,0.68
2022-09-25T23:21:02.604Z,0.90
2022-09-25T23:23:29.993Z,0.70
2022-09-25T23:26:02.158Z,0.75
2022-09-25T23:28:29.848Z,0.70
2022-09-25T23:30:57.266Z,0.80
2022-09-25T23:33:24.619Z,0.80
2022-09-25T23:35:53.616Z,0.70
2022-09-25T23:38:20.941Z,0.70
2022-09-25T23:40:48.353Z,0.70
2022-09-25T23:43:17.377Z,0.70
2022-09-25T23:45:44.721Z,0.60
2022-09-25T23:48:12.083Z,0.70
2022-09-25T23:50:39.402Z,0.75
2022-09-25T23:53:08.056Z,0.80
2022-09-25T23:55:39.767Z,0.80
2022-09-25T23:58:07.092Z,0.70
